createdAt,value
2022-09-10T00:01:30.017Z,111.00
2022-09-10T00:03:56.851Z,110.15
2022-09-10T00:06:27.867Z,112.65
2022-09-10T00:08:57.727Z,104.70
2022-09-10T00:11:31.121Z,102.75
2022-09-10T00:13:59.749Z,105.77
2022-09-10T00:16:27.650Z,107.38
2022-09-10T00:18:54.274Z,104.72
2022-09-10T00:21:21.710Z,113.13
2022-09-10T00:23:48.786Z,108.30
2022-09-10T00:26:27.491Z,116.38
2022-09-10T00:28:56.351Z,110.60
2022-09-10T00:31:24.077Z,105.57
2022-09-10T00:33:51.307Z,118.57
2022-09-10T00:36:24.176Z,115.93
2022-09-10T00:38:53.347Z,110.45
2022-09-10T00:41:22.481Z,115.03
2022-09-10T00:44:00.612Z,106.95
2022-09-10T00:46:33.550Z,108.30
2022-09-10T00:49:03.714Z,110.90
2022-09-10T00:51:33.590Z,108.97
2022-09-10T00:54:01.004Z,108.40
2022-09-10T00:56:28.905Z,104.35
2022-09-10T00:58:56.043Z,99.72
2022-09-10T01:01:23.191Z,104.80
2022-09-10T01:03:50.696Z,106.82
2022-09-10T01:06:18.418Z,99.28
2022-09-10T01:08:44.923Z,102.55
2022-09-10T01:11:34.989Z,104.40
2022-09-10T01:14:38.169Z,102.80
2022-09-10T01:17:34.395Z,96.05
2022-09-10T01:20:35.058Z,106.07
2022-09-10T01:23:19.704Z,89.55
2022-09-10T01:25:46.114Z,86.05
2022-09-10T01:28:25.414Z,96.90
2022-09-10T01:30:59.299Z,96.05
2022-09-10T01:33:30.950Z,92.38
2022-09-10T01:36:02.245Z,88.60
2022-09-10T01:38:32.486Z,82.53
2022-09-10T01:40:59.454Z,78.28
2022-09-10T01:43:26.009Z,78.22
2022-09-10T01:45:52.515Z,81.95
2022-09-10T01:48:45.449Z,78.07
2022-09-10T01:51:35.075Z,73.80
2022-09-10T01:54:29.431Z,72.72
2022-09-10T01:57:22.222Z,76.03
2022-09-10T02:00:09.330Z,73.90
2022-09-10T02:02:44.222Z,75.05
2022-09-10T02:05:12.350Z,72.07
2022-09-10T02:07:39.558Z,78.90
2022-09-10T02:10:09.121Z,82.03
2022-09-10T02:12:36.804Z,80.65
2022-09-10T02:15:05.298Z,77.88
2022-09-10T02:17:35.796Z,77.65
2022-09-10T02:20:04.288Z,73.15
2022-09-10T02:22:33.852Z,75.53
2022-09-10T02:25:00.402Z,77.85
2022-09-10T02:27:29.995Z,78.68
2022-09-10T02:29:59.629Z,77.47
2022-09-10T02:32:27.160Z,82.20
2022-09-10T02:34:53.658Z,75.03
2022-09-10T02:37:20.233Z,73.03
2022-09-10T02:39:46.829Z,72.90
2022-09-10T02:42:16.950Z,70.20
2022-09-10T02:44:44.824Z,74.45
2022-09-10T02:47:11.338Z,81.43
2022-09-10T02:49:37.819Z,72.35
2022-09-10T02:52:04.637Z,63.05
2022-09-10T02:54:31.165Z,58.22
2022-09-10T02:56:57.643Z,55.72
2022-09-10T02:59:25.135Z,55.85
2022-09-10T03:01:51.962Z,49.92
2022-09-10T03:04:18.510Z,50.88
2022-09-10T03:06:45.282Z,47.83
2022-09-10T03:09:11.760Z,47.85
2022-09-10T03:11:40.662Z,45.78
2022-09-10T03:14:10.266Z,48.85
2022-09-10T03:16:36.844Z,47.08
2022-09-10T03:19:03.575Z,46.83
2022-09-10T03:21:30.150Z,46.35
2022-09-10T03:23:57.324Z,45.78
2022-09-10T03:26:27.958Z,46.42
2022-09-10T03:28:54.470Z,45.80
2022-09-10T03:31:21.742Z,45.42
2022-09-10T03:33:49.176Z,44.38
2022-09-10T03:36:15.830Z,46.35
2022-09-10T03:38:42.760Z,41.58
2022-09-10T03:41:09.772Z,39.67
2022-09-10T03:43:36.346Z,38.17
2022-09-10T03:46:03.278Z,37.88
2022-09-10T03:48:29.992Z,41.85
2022-09-10T03:50:56.781Z,37.45
2022-09-10T03:53:23.908Z,36.13
2022-09-10T03:55:51.856Z,41.65
2022-09-10T03:58:19.227Z,39.75
2022-09-10T04:00:46.550Z,38.00
2022-09-10T04:03:14.558Z,40.78
2022-09-10T04:05:44.100Z,37.90
2022-09-10T04:08:12.220Z,41.70
2022-09-10T04:10:39.902Z,42.25
2022-09-10T04:13:07.140Z,41.53
2022-09-10T04:15:34.375Z,37.20
2022-09-10T04:18:01.076Z,39.15
2022-09-10T04:20:27.745Z,39.15
2022-09-10T04:22:55.101Z,38.35
2022-09-10T04:25:21.647Z,40.28
2022-09-10T04:27:49.040Z,34.90
2022-09-10T04:30:15.883Z,35.08
2022-09-10T04:32:42.819Z,39.15
2022-09-10T04:35:09.624Z,34.92
2022-09-10T04:37:36.114Z,38.83
2022-09-10T04:40:03.715Z,37.13
2022-09-10T04:42:31.883Z,39.50
2022-09-10T04:44:59.222Z,41.88
2022-09-10T04:47:26.188Z,35.53
2022-09-10T04:49:52.737Z,34.05
2022-09-10T04:52:22.694Z,36.53
2022-09-10T04:54:49.475Z,35.60
2022-09-10T04:57:16.091Z,34.83
2022-09-10T04:59:42.808Z,35.55
2022-09-10T05:02:09.376Z,37.72
2022-09-10T05:04:36.176Z,35.60
2022-09-10T05:07:02.685Z,36.13
2022-09-10T05:09:31.323Z,35.47
2022-09-10T05:11:58.222Z,35.55
2022-09-10T05:14:25.500Z,36.45
2022-09-10T05:16:52.493Z,35.70
2022-09-10T05:19:21.398Z,38.53
2022-09-10T05:21:48.534Z,37.75
2022-09-10T05:24:15.571Z,35.95
2022-09-10T05:26:42.677Z,45.47
2022-09-10T05:29:11.310Z,42.38
2022-09-10T05:31:37.926Z,36.28
2022-09-10T05:34:04.571Z,36.42
2022-09-10T05:36:32.088Z,40.33
2022-09-10T05:39:00.288Z,39.08
2022-09-10T05:41:28.144Z,38.95
2022-09-10T05:43:55.056Z,37.42
2022-09-10T05:46:22.347Z,40.47
2022-09-10T05:48:49.090Z,39.80
2022-09-10T05:51:15.932Z,41.92
2022-09-10T05:53:42.393Z,38.17
2022-09-10T05:56:09.284Z,43.75
2022-09-10T05:58:35.840Z,39.40
2022-09-10T06:01:02.467Z,40.83
2022-09-10T06:03:28.992Z,47.90
2022-09-10T06:05:55.714Z,52.10
2022-09-10T06:08:22.774Z,57.83
2022-09-10T06:10:57.355Z,63.90
2022-09-10T06:13:24.956Z,63.03
2022-09-10T06:15:51.886Z,63.38
2022-09-10T06:18:19.219Z,72.40
2022-09-10T06:20:47.791Z,69.07
2022-09-10T06:23:16.586Z,94.55
2022-09-10T06:25:43.445Z,117.93
2022-09-10T06:28:12.188Z,136.85
2022-09-10T06:30:39.411Z,100.13
2022-09-10T06:33:06.039Z,141.32
2022-09-10T06:35:33.311Z,151.60
2022-09-10T06:37:59.799Z,173.60
2022-09-10T06:40:29.663Z,164.88
2022-09-10T06:42:56.238Z,175.25
2022-09-10T06:45:22.732Z,199.77
2022-09-10T06:48:37.001Z,186.93
2022-09-10T06:50:36.944Z,189.60
2022-09-10T06:53:03.622Z,180.63
2022-09-10T06:55:30.164Z,199.45
2022-09-10T06:57:59.580Z,182.45
2022-09-10T07:00:26.043Z,203.30
2022-09-10T07:02:52.944Z,184.52
2022-09-10T07:05:19.445Z,176.98
2022-09-10T07:07:46.376Z,200.13
2022-09-10T07:10:12.879Z,177.23
2022-09-10T07:12:39.367Z,234.73
2022-09-10T07:15:06.246Z,230.48
2022-09-10T07:17:35.649Z,238.00
2022-09-10T07:20:02.927Z,190.30
2022-09-10T07:22:29.419Z,211.30
2022-09-10T07:24:56.098Z,250.43
2022-09-10T07:27:22.698Z,206.55
2022-09-10T07:29:49.595Z,253.25
2022-09-10T07:32:16.223Z,233.95
2022-09-10T07:34:43.125Z,226.18
2022-09-10T07:37:09.690Z,213.85
2022-09-10T07:39:36.223Z,186.68
2022-09-10T07:42:02.758Z,187.30
2022-09-10T07:44:29.365Z,188.07
2022-09-10T07:46:55.982Z,158.27
2022-09-10T07:49:22.445Z,108.38
2022-09-10T07:51:49.210Z,114.20
2022-09-10T07:54:17.305Z,95.28
2022-09-10T07:56:44.185Z,71.00
2022-09-10T07:59:11.685Z,59.42
2022-09-10T08:01:38.207Z,68.25
2022-09-10T08:04:06.237Z,47.03
2022-09-10T08:06:34.010Z,56.95
2022-09-10T08:09:00.479Z,77.75
2022-09-10T08:11:27.040Z,51.63
2022-09-10T08:13:54.519Z,50.58
2022-09-10T08:16:23.610Z,56.75
2022-09-10T08:18:51.389Z,52.83
2022-09-10T08:21:19.368Z,49.58
2022-09-10T08:23:51.059Z,51.85
2022-09-10T08:26:18.099Z,52.15
2022-09-10T08:28:44.665Z,57.97
2022-09-10T08:31:12.825Z,60.53
2022-09-10T08:33:40.187Z,61.22
2022-09-10T08:36:10.484Z,74.32
2022-09-10T08:38:39.851Z,111.05
2022-09-10T08:41:13.433Z,139.30
2022-09-10T08:43:41.807Z,147.03
2022-09-10T08:46:22.634Z,159.10
2022-09-10T08:49:00.598Z,163.30
2022-09-10T08:51:34.306Z,179.90
2022-09-10T08:54:10.194Z,227.13
2022-09-10T08:56:37.987Z,253.38
2022-09-10T08:59:33.352Z,207.10
2022-09-10T09:02:37.827Z,216.15
2022-09-10T09:05:09.589Z,197.57
2022-09-10T09:07:40.265Z,227.77
2022-09-10T09:10:42.682Z,222.43
2022-09-10T09:13:32.178Z,218.07
2022-09-10T09:16:28.799Z,238.30
2022-09-10T09:19:14.708Z,237.10
2022-09-10T09:21:54.679Z,232.90
2022-09-10T09:24:40.447Z,236.27
2022-09-10T09:27:13.968Z,243.63
2022-09-10T09:29:48.247Z,260.05
2022-09-10T09:32:17.223Z,245.77
2022-09-10T09:34:50.526Z,282.77
2022-09-10T09:37:21.418Z,304.07
2022-09-10T09:39:59.400Z,349.20
2022-09-10T09:42:39.843Z,326.30
2022-09-10T09:45:28.424Z,350.08
2022-09-10T09:47:55.900Z,342.73
2022-09-10T09:50:23.053Z,381.05
2022-09-10T09:52:55.141Z,372.02
2022-09-10T09:55:33.618Z,420.40
2022-09-10T09:58:21.622Z,381.42
2022-09-10T10:01:13.231Z,399.92
2022-09-10T10:03:48.548Z,406.98
2022-09-10T10:06:16.354Z,448.13
2022-09-10T10:08:46.050Z,376.50
2022-09-10T10:11:17.264Z,408.58
2022-09-10T10:13:48.099Z,440.95
2022-09-10T10:16:14.604Z,374.08
2022-09-10T10:18:43.043Z,388.70
2022-09-10T10:21:28.030Z,327.58
2022-09-10T10:23:54.868Z,431.02
2022-09-10T10:26:21.305Z,377.25
2022-09-10T10:28:53.986Z,353.00
2022-09-10T10:31:21.102Z,403.58
2022-09-10T10:34:09.637Z,378.02
2022-09-10T10:37:03.614Z,361.52
2022-09-10T10:39:48.568Z,439.13
2022-09-10T10:42:30.662Z,334.92
2022-09-10T10:45:16.706Z,325.65
2022-09-10T10:48:03.238Z,280.38
2022-09-10T10:51:03.380Z,253.25
2022-09-10T10:54:10.753Z,255.98
2022-09-10T10:56:59.935Z,192.70
2022-09-10T10:59:47.583Z,181.52
2022-09-10T11:02:19.911Z,176.55
2022-09-10T11:04:53.187Z,182.98
2022-09-10T11:07:29.651Z,184.23
2022-09-10T11:10:23.578Z,206.63
2022-09-10T11:13:22.198Z,226.55
2022-09-10T11:15:59.524Z,180.75
2022-09-10T11:18:34.271Z,185.25
2022-09-10T11:21:20.958Z,169.23
2022-09-10T11:24:00.501Z,122.47
2022-09-10T11:26:41.563Z,100.82
2022-09-10T11:29:32.250Z,78.38
2022-09-10T11:32:01.841Z,78.00
2022-09-10T11:34:35.468Z,74.35
2022-09-10T11:37:20.031Z,61.45
2022-09-10T11:39:52.452Z,73.57
2022-09-10T11:42:34.093Z,54.85
2022-09-10T11:45:36.729Z,49.13
2022-09-10T11:48:11.426Z,46.22
2022-09-10T11:50:46.715Z,43.83
2022-09-10T11:53:16.290Z,44.47
2022-09-10T11:56:05.058Z,45.00
2022-09-10T11:59:08.757Z,39.75
2022-09-10T12:02:10.669Z,35.13
2022-09-10T12:05:14.519Z,29.48
2022-09-10T12:07:53.840Z,20.83
2022-09-10T12:10:31.552Z,21.30
2022-09-10T12:12:58.895Z,20.00
2022-09-10T12:15:37.157Z,20.65
2022-09-10T12:18:13.936Z,21.48
2022-09-10T12:20:52.072Z,20.83
2022-09-10T12:23:28.118Z,20.80
2022-09-10T12:26:08.842Z,20.90
2022-09-10T12:28:41.747Z,21.65
2022-09-10T12:31:10.103Z,20.73
2022-09-10T12:34:09.094Z,20.63
2022-09-10T12:36:35.493Z,21.92
2022-09-10T12:39:25.855Z,20.65
2022-09-10T12:41:53.097Z,20.70
2022-09-10T12:44:25.367Z,21.02
2022-09-10T12:47:13.755Z,22.05
2022-09-10T12:50:01.170Z,23.70
2022-09-10T12:52:35.078Z,22.35
2022-09-10T12:55:28.944Z,22.98
2022-09-10T12:58:32.794Z,22.50
2022-09-10T13:01:11.128Z,21.85
2022-09-10T13:03:54.938Z,23.13
2022-09-10T13:06:35.871Z,22.85
2022-09-10T13:09:05.819Z,22.23
2022-09-10T13:11:35.772Z,22.55
2022-09-10T13:14:06.199Z,23.92
2022-09-10T13:16:32.855Z,26.15
2022-09-10T13:19:14.576Z,25.98
2022-09-10T13:21:41.039Z,25.42
2022-09-10T13:24:35.700Z,25.20
2022-09-10T13:27:17.375Z,25.10
2022-09-10T13:29:47.171Z,25.23
2022-09-10T13:32:37.543Z,24.20
2022-09-10T13:35:17.076Z,23.80
2022-09-10T13:37:59.365Z,24.23
2022-09-10T13:40:38.693Z,26.27
2022-09-10T13:43:05.481Z,28.50
2022-09-10T13:45:46.852Z,32.08
2022-09-10T13:48:23.859Z,31.00
2022-09-10T13:51:15.302Z,31.83
2022-09-10T13:53:46.956Z,28.75
2022-09-10T13:56:19.197Z,27.90
2022-09-10T13:58:52.153Z,26.23
2022-09-10T14:01:18.779Z,25.77
2022-09-10T14:03:45.501Z,25.95
2022-09-10T14:06:18.795Z,28.80
2022-09-10T14:08:50.514Z,28.88
2022-09-10T14:11:25.194Z,31.63
2022-09-10T14:14:06.352Z,33.45
2022-09-10T14:16:55.410Z,34.05
2022-09-10T14:19:21.851Z,33.45
2022-09-10T14:21:50.074Z,35.85
2022-09-10T14:24:30.617Z,34.75
2022-09-10T14:27:15.634Z,34.03
2022-09-10T14:29:42.963Z,35.28
2022-09-10T14:32:26.495Z,32.97
2022-09-10T14:34:53.036Z,32.15
2022-09-10T14:37:39.562Z,32.53
2022-09-10T14:40:20.875Z,32.15
2022-09-10T14:42:49.490Z,31.30
2022-09-10T14:45:42.511Z,32.63
2022-09-10T14:48:29.518Z,31.80
2022-09-10T14:51:12.827Z,29.90
2022-09-10T14:53:40.893Z,30.23
2022-09-10T14:56:22.350Z,29.75
2022-09-10T14:59:05.955Z,27.85
2022-09-10T15:01:32.717Z,25.90
2022-09-10T15:04:02.074Z,28.50
2022-09-10T15:06:28.730Z,28.63
2022-09-10T15:08:58.330Z,27.52
2022-09-10T15:11:28.179Z,27.52
2022-09-10T15:13:56.112Z,28.73
2022-09-10T15:16:25.826Z,30.70
2022-09-10T15:18:52.313Z,30.75
2022-09-10T15:21:19.394Z,29.85
2022-09-10T15:23:48.256Z,28.40
2022-09-10T15:26:15.215Z,31.60
2022-09-10T15:28:42.054Z,31.17
2022-09-10T15:31:09.244Z,31.15
2022-09-10T15:33:36.179Z,30.40
2022-09-10T15:36:03.340Z,30.58
2022-09-10T15:38:29.914Z,28.85
2022-09-10T15:41:08.347Z,28.70
2022-09-10T15:43:38.833Z,28.30
2022-09-10T15:46:06.611Z,27.40
2022-09-10T15:48:33.654Z,24.67
2022-09-10T15:51:02.767Z,22.88
2022-09-10T15:53:32.838Z,22.73
2022-09-10T15:56:05.393Z,22.55
2022-09-10T15:58:32.002Z,21.77
2022-09-10T16:01:07.488Z,23.58
2022-09-10T16:03:34.835Z,25.27
2022-09-10T16:06:03.271Z,27.83
2022-09-10T16:08:30.731Z,30.33
2022-09-10T16:10:57.911Z,31.65
2022-09-10T16:13:26.004Z,31.27
2022-09-10T16:16:03.363Z,28.90
2022-09-10T16:18:31.776Z,28.45
2022-09-10T16:21:18.485Z,26.52
2022-09-10T16:23:49.227Z,26.70
2022-09-10T16:26:19.906Z,28.25
2022-09-10T16:29:14.107Z,28.48
2022-09-10T16:31:41.075Z,29.13
2022-09-10T16:34:10.939Z,31.15
2022-09-10T16:36:39.202Z,32.08
2022-09-10T16:39:12.306Z,32.50
2022-09-10T16:41:40.355Z,31.50
2022-09-10T16:44:07.222Z,32.42
2022-09-10T16:46:34.366Z,32.88
2022-09-10T16:49:01.549Z,29.88
2022-09-10T16:51:28.870Z,27.92
2022-09-10T16:54:06.363Z,29.05
2022-09-10T16:56:40.013Z,26.55
2022-09-10T16:59:08.818Z,26.95
2022-09-10T17:01:36.642Z,26.02
2022-09-10T17:04:04.662Z,26.13
2022-09-10T17:06:31.795Z,30.58
2022-09-10T17:09:00.590Z,34.55
2022-09-10T17:11:32.738Z,37.88
2022-09-10T17:14:03.057Z,44.58
2022-09-10T17:16:37.754Z,65.03
2022-09-10T17:19:16.231Z,96.28
2022-09-10T17:21:44.928Z,73.45
2022-09-10T17:24:13.214Z,87.40
2022-09-10T17:26:41.283Z,95.03
2022-09-10T17:29:18.901Z,99.45
2022-09-10T17:31:49.383Z,104.57
2022-09-10T17:34:16.518Z,113.80
2022-09-10T17:36:45.417Z,117.32
2022-09-10T17:39:13.000Z,134.75
2022-09-10T17:41:40.491Z,141.95
2022-09-10T17:44:08.133Z,152.77
2022-09-10T17:46:36.075Z,200.68
2022-09-10T17:49:03.832Z,189.65
2022-09-10T17:51:32.686Z,202.40
2022-09-10T17:53:59.446Z,212.60
2022-09-10T17:56:27.019Z,201.57
2022-09-10T17:58:58.468Z,214.43
2022-09-10T18:01:27.586Z,265.58
2022-09-10T18:03:54.815Z,256.98
2022-09-10T18:06:22.151Z,262.15
2022-09-10T18:08:50.428Z,265.23
2022-09-10T18:11:22.714Z,275.73
2022-09-10T18:13:52.146Z,286.92
2022-09-10T18:16:22.271Z,293.35
2022-09-10T18:19:01.037Z,299.67
2022-09-10T18:21:31.310Z,309.40
2022-09-10T18:24:00.527Z,313.75
2022-09-10T18:26:29.361Z,331.33
2022-09-10T18:28:57.600Z,358.77
2022-09-10T18:31:25.029Z,346.63
2022-09-10T18:33:53.576Z,365.52
2022-09-10T18:36:20.586Z,393.85
2022-09-10T18:38:47.421Z,377.05
2022-09-10T18:41:36.010Z,413.48
2022-09-10T18:44:04.408Z,436.40
2022-09-10T18:46:32.987Z,473.45
2022-09-10T18:49:00.026Z,500.45
2022-09-10T18:51:28.453Z,541.20
2022-09-10T18:54:00.312Z,575.88
2022-09-10T18:56:30.146Z,621.67
2022-09-10T18:59:03.159Z,659.00
2022-09-10T19:01:31.174Z,679.17
2022-09-10T19:03:58.320Z,695.55
2022-09-10T19:06:36.608Z,695.20
2022-09-10T19:09:09.496Z,693.22
2022-09-10T19:11:39.339Z,655.92
2022-09-10T19:14:08.689Z,637.30
2022-09-10T19:16:36.219Z,621.92
2022-09-10T19:19:05.714Z,597.95
2022-09-10T19:21:35.310Z,593.35
2022-09-10T19:24:03.705Z,590.03
2022-09-10T19:26:33.295Z,572.85
2022-09-10T19:29:01.677Z,566.10
2022-09-10T19:31:30.078Z,572.72
2022-09-10T19:34:03.014Z,576.03
2022-09-10T19:36:31.711Z,564.30
2022-09-10T19:38:59.586Z,572.53
2022-09-10T19:41:26.253Z,560.45
2022-09-10T19:43:53.910Z,585.10
2022-09-10T19:46:22.561Z,578.92
2022-09-10T19:48:49.384Z,567.30
2022-09-10T19:51:20.117Z,579.10
2022-09-10T19:53:48.149Z,569.35
2022-09-10T19:56:20.948Z,589.67
2022-09-10T19:58:49.983Z,543.00
2022-09-10T20:01:19.794Z,540.65
2022-09-10T20:03:48.218Z,542.95
2022-09-10T20:06:18.334Z,554.03
2022-09-10T20:08:47.239Z,552.63
2022-09-10T20:11:16.823Z,540.97
2022-09-10T20:13:45.162Z,545.90
2022-09-10T20:16:13.000Z,576.78
2022-09-10T20:18:39.935Z,583.17
2022-09-10T20:21:21.078Z,579.47
2022-09-10T20:23:50.987Z,563.55
2022-09-10T20:26:22.550Z,598.50
2022-09-10T20:28:55.710Z,521.13
2022-09-10T20:31:24.003Z,519.63
2022-09-10T20:33:55.015Z,527.50
2022-09-10T20:36:22.857Z,509.17
2022-09-10T20:38:50.546Z,459.80
2022-09-10T20:41:17.237Z,468.20
2022-09-10T20:43:43.798Z,477.70
2022-09-10T20:46:15.927Z,490.17
2022-09-10T20:48:48.789Z,470.00
2022-09-10T20:51:20.501Z,530.17
2022-09-10T20:53:47.967Z,477.10
2022-09-10T20:56:18.066Z,556.13
2022-09-10T20:58:45.454Z,417.15
2022-09-10T21:01:17.414Z,491.55
2022-09-10T21:03:43.974Z,479.75
2022-09-10T21:06:11.894Z,431.55
2022-09-10T21:08:40.585Z,396.40
2022-09-10T21:11:16.113Z,417.65
2022-09-10T21:13:45.180Z,450.25
2022-09-10T21:16:14.639Z,401.45
2022-09-10T21:18:42.348Z,432.80
2022-09-10T21:21:14.316Z,391.48
2022-09-10T21:23:45.625Z,372.38
2022-09-10T21:26:13.582Z,349.05
2022-09-10T21:28:41.570Z,366.27
2022-09-10T21:31:09.525Z,365.70
2022-09-10T21:33:36.594Z,355.02
2022-09-10T21:36:06.407Z,355.00
2022-09-10T21:38:35.138Z,345.65
2022-09-10T21:41:03.692Z,361.83
2022-09-10T21:43:37.806Z,359.98
2022-09-10T21:48:35.846Z,316.60
2022-09-10T21:51:05.792Z,320.92
2022-09-10T21:53:33.494Z,336.20
2022-09-10T21:56:01.515Z,313.40
2022-09-10T21:58:30.394Z,320.63
2022-09-10T22:00:58.560Z,312.77
2022-09-10T22:03:26.409Z,300.85
2022-09-10T22:05:52.948Z,324.75
2022-09-10T22:08:19.484Z,314.38
2022-09-10T22:10:46.374Z,315.05
2022-09-10T22:13:12.865Z,318.08
2022-09-10T22:15:40.503Z,302.70
2022-09-10T22:18:08.300Z,300.75
2022-09-10T22:20:36.322Z,298.73
2022-09-10T22:23:03.855Z,280.45
2022-09-10T22:25:31.206Z,277.40
2022-09-10T22:27:58.297Z,287.45
2022-09-10T22:30:27.810Z,279.45
2022-09-10T22:32:57.967Z,266.98
2022-09-10T22:35:26.156Z,271.15
2022-09-10T22:37:56.745Z,274.52
2022-09-10T22:40:24.464Z,254.85
2022-09-10T22:42:51.682Z,250.85
2022-09-10T22:45:20.749Z,267.52
2022-09-10T22:47:47.994Z,277.55
2022-09-10T22:50:15.286Z,292.95
2022-09-10T22:52:43.657Z,274.33
2022-09-10T22:55:10.434Z,282.25
2022-09-10T22:57:38.525Z,266.67
2022-09-10T23:00:06.122Z,283.60
2022-09-10T23:02:32.606Z,287.45
2022-09-10T23:04:59.913Z,272.10
2022-09-10T23:07:26.410Z,269.90
2022-09-10T23:09:52.897Z,254.10
2022-09-10T23:12:22.065Z,253.43
2022-09-10T23:14:48.619Z,248.52
2022-09-10T23:17:18.459Z,239.65
2022-09-10T23:19:47.162Z,235.90
2022-09-10T23:22:14.031Z,225.25
2022-09-10T23:24:40.598Z,218.55
2022-09-10T23:27:07.078Z,218.07
2022-09-10T23:29:33.581Z,209.85
2022-09-10T23:32:00.083Z,194.88
2022-09-10T23:34:26.615Z,192.25
2022-09-10T23:36:53.806Z,177.77
2022-09-10T23:39:22.714Z,178.98
2022-09-10T23:41:50.833Z,159.75
2022-09-10T23:44:17.674Z,170.23
2022-09-10T23:46:48.073Z,158.18
2022-09-10T23:49:14.954Z,142.65
2022-09-10T23:51:41.698Z,135.40
2022-09-10T23:54:09.991Z,134.30
2022-09-10T23:56:37.185Z,137.40
2022-09-10T23:59:03.833Z,120.47
